Stations météo

Publicité
Marienleuchte, Allemagne (10067): Température de l'air & dewpoint: 12.01.2018 06:00:00 - 18.01.2018 06:00:00 (CET)Marienleuchte, Allemagne (10067): Vitesse du vent & gusts: 12.01.2018 06:00:00 - 18.01.2018 06:00:00 (CET)Marienleuchte, Allemagne (10067): Direction du vent: 12.01.2018 06:00:00 - 18.01.2018 06:00:00 (CET)Marienleuchte, Allemagne (10067): reduced air pressure: 12.01.2018 06:00:00 - 18.01.2018 06:00:00 (CET)
Date & Time tt [°C] td [°C] ff [km/h] ff [knt] fx [km/h] fx [knt] dd ppp [hPa]
18.01.2018 06:00:00 1,7 0,5 18 10 - - SSW 994,4
18.01.2018 05:00:00 1,4 0,2 22 12 - - SSW 995,0
18.01.2018 04:00:00 2,0 0,7 18 10 - - SW 996,0
18.01.2018 03:00:00 2,1 0,8 25 14 - - SSW 996,2
18.01.2018 02:00:00 2,0 0,8 18 10 - - SW 996,4
18.01.2018 01:00:00 1,6 0,9 14 8 - - SW 996,6
18.01.2018 00:00:00 1,7 0,6 14 8 - - SW 996,4
17.01.2018 23:00:00 1,9 0,4 18 10 - - WSW 996,1
17.01.2018 22:00:00 1,7 0,0 18 10 - - WSW 995,7
17.01.2018 21:00:00 1,7 0,2 22 12 - - WSW 995,3
17.01.2018 20:00:00 1,5 0,0 22 12 - - WSW 994,7
17.01.2018 19:00:00 1,8 -0,1 18 10 - - WSW 994,1
17.01.2018 18:00:00 1,7 -0,2 25 14 - - WSW 993,4
17.01.2018 17:00:00 2,7 0,4 22 12 50 27 WSW 992,7
17.01.2018 16:00:00 2,7 0,3 22 12 - - WSW 991,8
17.01.2018 15:00:00 2,9 0,4 25 14 - - WSW 990,8
17.01.2018 14:00:00 2,5 0,5 22 12 - - WSW 990,4
17.01.2018 13:00:00 2,7 0,6 29 16 - - WSW 989,6
17.01.2018 12:00:00 2,5 0,5 25 14 - - WSW 989,2
17.01.2018 11:00:00 2,3 0,5 22 12 - - WSW 988,7
17.01.2018 10:00:00 1,9 0,1 14 8 - - WSW 988,2
17.01.2018 09:00:00 1,9 0,2 11 6 - - SW 987,5
17.01.2018 08:00:00 1,8 0,1 14 8 - - SW 987,0
17.01.2018 07:00:00 1,9 0,1 14 8 - - SW 986,1
17.01.2018 06:00:00 1,8 0,1 18 10 - - SW 985,8
17.01.2018 05:00:00 1,4 0,0 18 10 - - SW 986,0
17.01.2018 04:00:00 1,2 0,0 18 10 - - SSW 986,0
17.01.2018 03:00:00 1,6 0,2 14 8 - - SW 986,0
17.01.2018 02:00:00 1,8 0,2 22 12 - - SW 986,3
17.01.2018 01:00:00 1,7 0,5 14 8 - - SW 986,3
17.01.2018 00:00:00 1,7 0,4 14 8 - - SW 986,3
16.01.2018 23:00:00 1,5 0,2 18 10 - - SW 986,2
16.01.2018 22:00:00 1,4 0,2 18 10 - - SW 986,0
16.01.2018 21:00:00 1,4 0,0 18 10 - - SSW 986,0
16.01.2018 20:00:00 1,9 0,6 18 10 - - SW 985,8
16.01.2018 19:00:00 2,2 0,8 22 12 - - SW 985,7
16.01.2018 18:00:00 2,9 1,2 18 10 - - SW 985,2
16.01.2018 17:00:00 3,5 1,6 14 8 - - SW 985,1
16.01.2018 16:00:00 3,1 1,4 18 10 - - SSW 984,6
16.01.2018 15:00:00 3,6 1,5 18 10 - - SSW 984,4
16.01.2018 14:00:00 4,0 1,9 18 10 - - SSW 984,3
16.01.2018 13:00:00 4,2 2,1 18 10 - - SSW 984,7
16.01.2018 12:00:00 4,2 2,4 18 10 - - S 985,1
16.01.2018 11:00:00 4,0 2,5 22 12 - - S 985,2
16.01.2018 10:00:00 3,7 2,5 25 14 - - S 985,2
16.01.2018 09:00:00 3,5 2,3 25 14 - - S 985,1
16.01.2018 08:00:00 3,4 1,9 25 14 - - S 984,9
16.01.2018 07:00:00 3,5 1,3 22 12 - - SSW 984,6
16.01.2018 06:00:00 4,0 2,6 22 12 - - SSW 984,6
16.01.2018 05:00:00 3,6 2,8 29 16 58 31 S 984,6
16.01.2018 04:00:00 3,3 2,6 43 23 - - S 984,9
16.01.2018 03:00:00 2,4 1,5 50 27 90 49 SSE 985,1
16.01.2018 02:00:00 2,4 1,3 58 31 86 47 SSE 985,8
16.01.2018 01:00:00 2,6 1,2 54 29 - - SSE 987,3
16.01.2018 00:00:00 2,8 1,1 54 29 90 49 SSE 989,0
15.01.2018 23:00:00 2,9 0,9 47 25 79 43 SSE 991,2
15.01.2018 22:00:00 2,9 0,6 50 27 - - SSE 992,9
15.01.2018 21:00:00 3,0 0,5 50 27 76 41 SSE 994,7
15.01.2018 20:00:00 2,9 0,2 50 27 79 43 SSE 996,6
15.01.2018 19:00:00 2,6 -0,1 47 25 - - SSE 998,4
15.01.2018 18:00:00 2,8 -0,5 43 23 68 37 SSE 1000,0
15.01.2018 17:00:00 2,5 -0,9 50 27 72 39 SSE 1001,4
15.01.2018 16:00:00 2,2 -1,0 43 23 - - SSE 1002,9
15.01.2018 15:00:00 2,0 -1,3 40 21 61 33 SSE 1004,7
15.01.2018 14:00:00 1,7 -1,7 43 23 68 37 SSE 1006,4
15.01.2018 13:00:00 1,5 -2,0 36 19 - - SSE 1007,8
15.01.2018 12:00:00 1,0 -2,3 32 18 61 33 SSE 1009,9
15.01.2018 11:00:00 0,6 -2,5 43 23 72 39 SSE 1011,3
15.01.2018 10:00:00 0,5 -2,6 47 25 - - SSE 1012,5
15.01.2018 09:00:00 0,0 -3,0 43 23 61 33 SSE 1013,6
15.01.2018 08:00:00 -0,1 -3,1 36 19 58 31 SSE 1014,7
15.01.2018 07:00:00 0,0 -2,7 40 21 - - SSE 1015,8
15.01.2018 06:00:00 -0,1 -3,3 36 19 54 29 SSE 1016,8
15.01.2018 05:00:00 -0,3 -3,2 32 18 54 29 SSE 1018,1
15.01.2018 04:00:00 -0,3 -2,7 36 19 - - SE 1019,3
15.01.2018 03:00:00 -0,6 -3,0 32 18 50 27 SSE 1020,3
15.01.2018 02:00:00 -0,9 -3,0 29 16 54 29 SSE 1021,3
15.01.2018 01:00:00 -0,8 -3,1 40 21 - - SSE 1022,3
15.01.2018 00:00:00 -1,1 -3,3 36 19 47 25 SE 1023,5
14.01.2018 23:00:00 -1,2 -3,5 32 18 47 25 SE 1024,3
14.01.2018 22:00:00 -1,4 -3,8 32 18 - - SSE 1025,1
14.01.2018 21:00:00 -1,0 -3,6 32 18 50 27 SE 1025,4
14.01.2018 20:00:00 -0,8 -3,3 40 21 54 29 SE 1025,7
14.01.2018 19:00:00 -0,6 -3,1 40 21 - - SE 1026,1
14.01.2018 18:00:00 -0,5 -3,3 43 23 54 29 SE 1026,6
14.01.2018 17:00:00 -0,3 -3,1 43 23 54 29 SE 1026,9
14.01.2018 16:00:00 0,1 -2,9 43 23 - - ESE 1027,0
14.01.2018 15:00:00 0,6 -2,3 40 21 50 27 ESE 1027,6
14.01.2018 14:00:00 0,7 -2,5 36 19 50 27 ESE 1027,7
14.01.2018 13:00:00 0,6 -2,5 40 21 - - SE 1028,2
14.01.2018 12:00:00 0,4 -2,9 47 25 58 31 SE 1028,7
14.01.2018 11:00:00 0,6 -3,0 50 27 61 33 ESE 1029,3
14.01.2018 10:00:00 0,5 -3,0 50 27 - - ESE 1029,3
14.01.2018 09:00:00 0,7 -3,3 50 27 61 33 SE 1029,2
14.01.2018 08:00:00 1,0 -3,9 43 23 58 31 SE 1029,0
14.01.2018 07:00:00 0,8 -4,0 40 21 - - SE 1029,3
14.01.2018 06:00:00 0,8 -4,3 47 25 61 33 SE 1029,4
14.01.2018 05:00:00 0,5 -4,2 43 23 58 31 SE 1029,6
14.01.2018 04:00:00 0,6 -3,8 40 21 - - SE 1029,9
14.01.2018 03:00:00 0,7 -3,8 36 19 58 31 SE 1030,1
14.01.2018 02:00:00 0,5 -4,3 36 19 58 31 SE 1030,3
14.01.2018 01:00:00 0,5 -4,1 36 19 - - SE 1030,7
14.01.2018 00:00:00 0,4 -4,3 36 19 54 29 SE 1031,1
13.01.2018 23:00:00 0,5 -4,2 36 19 58 31 SE 1031,1
13.01.2018 22:00:00 0,2 -4,4 32 18 - - SE 1031,4
13.01.2018 21:00:00 0,1 -4,1 47 25 58 31 ESE 1031,6
13.01.2018 20:00:00 0,0 -3,5 43 23 72 39 ESE 1031,6
13.01.2018 19:00:00 -0,1 -4,1 43 23 - - ESE 1031,7
13.01.2018 18:00:00 0,0 -4,1 43 23 58 31 ESE 1031,9
13.01.2018 17:00:00 0,6 -3,1 40 21 54 29 ESE 1031,9
13.01.2018 16:00:00 0,7 -2,2 43 23 - - ESE 1031,6
13.01.2018 15:00:00 1,3 -1,6 40 21 54 29 ESE 1031,5
13.01.2018 14:00:00 1,6 -1,1 47 25 54 29 ESE 1031,8
13.01.2018 13:00:00 1,6 -0,7 43 23 - - ESE 1032,1
13.01.2018 12:00:00 1,1 0,1 43 23 54 29 ESE 1032,3
13.01.2018 11:00:00 1,4 -0,4 47 25 54 29 ESE 1032,2
13.01.2018 10:00:00 1,5 -0,5 43 23 - - ESE 1032,1
13.01.2018 09:00:00 1,4 -0,2 43 23 54 29 ESE 1031,6
13.01.2018 08:00:00 1,4 -0,2 43 23 54 29 ESE 1031,3
13.01.2018 07:00:00 1,4 0,2 43 23 - - ESE 1031,5
13.01.2018 06:00:00 1,6 0,2 40 21 50 27 ESE 1031,5
13.01.2018 05:00:00 1,8 0,5 40 21 47 25 ESE 1031,4
13.01.2018 04:00:00 1,8 0,7 40 21 - - ESE 1031,7
13.01.2018 03:00:00 2,1 0,6 40 21 47 25 ESE 1031,7
13.01.2018 02:00:00 2,1 0,6 36 19 - - ESE 1031,6
13.01.2018 01:00:00 2,2 0,7 36 19 - - ESE 1031,6
13.01.2018 00:00:00 2,5 0,2 36 19 47 25 ESE 1031,8
12.01.2018 23:00:00 2,4 0,2 40 21 50 27 ESE 1031,5
12.01.2018 22:00:00 2,7 0,6 43 23 - - ESE 1031,6
12.01.2018 21:00:00 2,8 0,4 43 23 50 27 ESE 1031,4
12.01.2018 20:00:00 3,1 1,1 43 23 50 27 E 1031,1
12.01.2018 19:00:00 3,2 0,9 40 21 - - ESE 1031,1
12.01.2018 18:00:00 3,3 1,1 40 21 50 27 E 1030,9
12.01.2018 17:00:00 3,5 1,4 32 18 - - E 1030,5
12.01.2018 16:00:00 3,2 0,6 36 19 - - E 1030,5
12.01.2018 15:00:00 3,1 0,1 40 21 65 35 ESE 1030,2
12.01.2018 14:00:00 2,9 -0,2 43 23 54 29 E 1030,1
12.01.2018 13:00:00 2,4 0,6 36 19 - - ESE 1030,2
12.01.2018 12:00:00 2,3 0,8 43 23 50 27 E 1029,8
12.01.2018 11:00:00 2,3 1,2 43 23 50 27 E 1029,7
12.01.2018 10:00:00 2,6 1,7 43 23 - - E 1028,9
12.01.2018 09:00:00 2,8 1,7 47 25 54 29 E 1028,4
12.01.2018 08:00:00 2,9 1,7 47 25 58 31 E 1027,5
12.01.2018 07:00:00 2,9 1,6 43 23 - - E 1026,9
12.01.2018 06:00:00 3,1 1,9 43 23 54 29 E 1026,3

tt = Température de l'air
td = dewpoint
ff = Vitesse du vent
fx = gusts
dd = Direction du vent
ppp = reduced air pressure

stations d'obs. à proximité